sensor_id;sensor_type;location;lat;lon;timestamp;temperature;humidity
8557;DHT22;4316;53.840;10.762;2023-02-26T00:00:47;1.80;99.90
8557;DHT22;4316;53.840;10.762;2023-02-26T00:03:13;1.80;99.90
8557;DHT22;4316;53.840;10.762;2023-02-26T00:05:39;1.80;99.90
8557;DHT22;4316;53.840;10.762;2023-02-26T00:08:04;1.80;99.90
8557;DHT22;4316;53.840;10.762;2023-02-26T00:10:31;1.80;99.90
8557;DHT22;4316;53.840;10.762;2023-02-26T00:12:57;1.80;99.90
8557;DHT22;4316;53.840;10.762;2023-02-26T00:15:23;1.70;99.90
8557;DHT22;4316;53.840;10.762;2023-02-26T00:17:54;1.70;99.90
8557;DHT22;4316;53.840;10.762;2023-02-26T00:20:23;1.70;99.90
8557;DHT22;4316;53.840;10.762;2023-02-26T00:22:49;1.70;99.90
8557;DHT22;4316;53.840;10.762;2023-02-26T00:25:15;1.70;99.90
8557;DHT22;4316;53.840;10.762;2023-02-26T00:27:41;1.80;99.90
8557;DHT22;4316;53.840;10.762;2023-02-26T00:30:09;1.70;99.90
8557;DHT22;4316;53.840;10.762;2023-02-26T00:32:35;1.80;99.90
8557;DHT22;4316;53.840;10.762;2023-02-26T00:35:03;1.70;99.90
8557;DHT22;4316;53.840;10.762;2023-02-26T00:37:52;1.80;99.90
8557;DHT22;4316;53.840;10.762;2023-02-26T00:42:51;1.80;99.90
8557;DHT22;4316;53.840;10.762;2023-02-26T00:45:17;1.80;99.90
8557;DHT22;4316;53.840;10.762;2023-02-26T00:50:48;1.80;99.90
8557;DHT22;4316;53.840;10.762;2023-02-26T00:56:04;1.80;99.90
8557;DHT22;4316;53.840;10.762;2023-02-26T00:58:29;1.70;99.90
8557;DHT22;4316;53.840;10.762;2023-02-26T01:00:55;1.80;99.90
8557;DHT22;4316;53.840;10.762;2023-02-26T01:03:21;1.70;99.90
8557;DHT22;4316;53.840;10.762;2023-02-26T01:05:47;1.70;99.90
8557;DHT22;4316;53.840;10.762;2023-02-26T01:10:54;1.70;99.90
8557;DHT22;4316;53.840;10.762;2023-02-26T01:13:20;1.60;99.90
8557;DHT22;4316;53.840;10.762;2023-02-26T01:15:51;1.70;99.90
8557;DHT22;4316;53.840;10.762;2023-02-26T01:18:26;1.70;99.90
8557;DHT22;4316;53.840;10.762;2023-02-26T01:20:57;1.70;99.90
8557;DHT22;4316;53.840;10.762;2023-02-26T01:23:30;1.70;99.90
8557;DHT22;4316;53.840;10.762;2023-02-26T01:26:07;1.60;99.90
8557;DHT22;4316;53.840;10.762;2023-02-26T01:28:35;1.60;99.90
8557;DHT22;4316;53.840;10.762;2023-02-26T01:31:06;1.60;99.90
8557;DHT22;4316;53.840;10.762;2023-02-26T01:33:46;1.60;99.90
8557;DHT22;4316;53.840;10.762;2023-02-26T01:36:24;1.60;99.90
8557;DHT22;4316;53.840;10.762;2023-02-26T01:38:55;1.60;99.90
8557;DHT22;4316;53.840;10.762;2023-02-26T01:49:20;1.50;99.90
8557;DHT22;4316;53.840;10.762;2023-02-26T01:51:56;1.50;99.90
8557;DHT22;4316;53.840;10.762;2023-02-26T01:54:24;1.40;99.90
8557;DHT22;4316;53.840;10.762;2023-02-26T01:56:56;1.40;99.90
8557;DHT22;4316;53.840;10.762;2023-02-26T01:59:23;1.40;99.90
8557;DHT22;4316;53.840;10.762;2023-02-26T02:01:55;1.40;99.90
8557;DHT22;4316;53.840;10.762;2023-02-26T02:04:23;1.30;99.90
8557;DHT22;4316;53.840;10.762;2023-02-26T02:06:49;1.30;99.90
8557;DHT22;4316;53.840;10.762;2023-02-26T02:09:15;1.20;99.90
8557;DHT22;4316;53.840;10.762;2023-02-26T02:11:55;1.20;99.90
8557;DHT22;4316;53.840;10.762;2023-02-26T02:14:30;1.20;99.90
8557;DHT22;4316;53.840;10.762;2023-02-26T02:17:15;1.20;99.90
8557;DHT22;4316;53.840;10.762;2023-02-26T02:23:14;1.10;99.90
8557;DHT22;4316;53.840;10.762;2023-02-26T02:32:15;0.90;99.90
8557;DHT22;4316;53.840;10.762;2023-02-26T02:34:28;1.00;99.90
8557;DHT22;4316;53.840;10.762;2023-02-26T02:39:31;1.00;99.90
8557;DHT22;4316;53.840;10.762;2023-02-26T02:42:32;0.90;99.90
8557;DHT22;4316;53.840;10.762;2023-02-26T02:45:25;0.90;99.90
8557;DHT22;4316;53.840;10.762;2023-02-26T02:48:05;0.70;99.90
8557;DHT22;4316;53.840;10.762;2023-02-26T02:50:37;0.70;99.90
8557;DHT22;4316;53.840;10.762;2023-02-26T02:53:16;0.80;99.90
8557;DHT22;4316;53.840;10.762;2023-02-26T02:55:52;0.80;99.90
8557;DHT22;4316;53.840;10.762;2023-02-26T02:58:23;0.80;99.90
8557;DHT22;4316;53.840;10.762;2023-02-26T03:00:53;0.70;99.90
8557;DHT22;4316;53.840;10.762;2023-02-26T03:03:31;0.70;99.90
8557;DHT22;4316;53.840;10.762;2023-02-26T03:05:58;0.80;99.90
8557;DHT22;4316;53.840;10.762;2023-02-26T03:08:28;0.60;99.90
8557;DHT22;4316;53.840;10.762;2023-02-26T03:10:55;0.60;99.90
8557;DHT22;4316;53.840;10.762;2023-02-26T03:13:23;0.70;99.90
8557;DHT22;4316;53.840;10.762;2023-02-26T03:21:34;0.50;99.90
8557;DHT22;4316;53.840;10.762;2023-02-26T03:32:19;0.40;99.90
8557;DHT22;4316;53.840;10.762;2023-02-26T03:37:39;0.20;99.90
8557;DHT22;4316;53.840;10.762;2023-02-26T03:40:10;0.20;99.90
8557;DHT22;4316;53.840;10.762;2023-02-26T03:42:56;0.20;99.90
8557;DHT22;4316;53.840;10.762;2023-02-26T03:45:28;0.20;99.90
8557;DHT22;4316;53.840;10.762;2023-02-26T03:47:56;0.20;99.90
8557;DHT22;4316;53.840;10.762;2023-02-26T03:53:25;0.30;99.90
8557;DHT22;4316;53.840;10.762;2023-02-26T03:56:14;0.40;99.90
8557;DHT22;4316;53.840;10.762;2023-02-26T03:58:44;0.30;99.90
8557;DHT22;4316;53.840;10.762;2023-02-26T04:01:34;0.30;99.90
8557;DHT22;4316;53.840;10.762;2023-02-26T04:04:06;0.30;99.90
8557;DHT22;4316;53.840;10.762;2023-02-26T04:06:34;0.30;99.90
8557;DHT22;4316;53.840;10.762;2023-02-26T04:09:01;0.20;99.90
8557;DHT22;4316;53.840;10.762;2023-02-26T04:11:28;0.20;99.90
8557;DHT22;4316;53.840;10.762;2023-02-26T04:13:55;0.20;99.90
8557;DHT22;4316;53.840;10.762;2023-02-26T04:16:21;0.20;99.90
8557;DHT22;4316;53.840;10.762;2023-02-26T04:18:47;0.20;99.90
8557;DHT22;4316;53.840;10.762;2023-02-26T04:21:17;0.20;99.90
8557;DHT22;4316;53.840;10.762;2023-02-26T04:23:44;0.10;99.90
8557;DHT22;4316;53.840;10.762;2023-02-26T04:26:10;0.10;99.90
8557;DHT22;4316;53.840;10.762;2023-02-26T04:28:39;0.00;99.90
8557;DHT22;4316;53.840;10.762;2023-02-26T04:31:05;0.00;99.90
8557;DHT22;4316;53.840;10.762;2023-02-26T04:33:32;0.10;99.90
8557;DHT22;4316;53.840;10.762;2023-02-26T04:35:59;0.00;99.90
8557;DHT22;4316;53.840;10.762;2023-02-26T04:38:25;0.00;99.90
8557;DHT22;4316;53.840;10.762;2023-02-26T04:40:51;0.00;99.90
8557;DHT22;4316;53.840;10.762;2023-02-26T04:43:18;0.10;99.90
8557;DHT22;4316;53.840;10.762;2023-02-26T04:45:53;0.10;99.90
8557;DHT22;4316;53.840;10.762;2023-02-26T04:48:19;0.00;99.90
8557;DHT22;4316;53.840;10.762;2023-02-26T04:50:45;0.00;99.90
8557;DHT22;4316;53.840;10.762;2023-02-26T04:53:11;0.00;99.90
8557;DHT22;4316;53.840;10.762;2023-02-26T04:55:38;-0.10;99.90
8557;DHT22;4316;53.840;10.762;2023-02-26T04:58:05;0.00;99.90
8557;DHT22;4316;53.840;10.762;2023-02-26T05:00:32;0.00;99.90
8557;DHT22;4316;53.840;10.762;2023-02-26T05:02:58;0.00;99.90
8557;DHT22;4316;53.840;10.762;2023-02-26T05:05:24;-0.10;99.90
8557;DHT22;4316;53.840;10.762;2023-02-26T05:07:50;-0.10;99.90
8557;DHT22;4316;53.840;10.762;2023-02-26T05:10:18;-0.20;99.90
8557;DHT22;4316;53.840;10.762;2023-02-26T05:12:44;-0.20;99.90
8557;DHT22;4316;53.840;10.762;2023-02-26T05:15:10;-0.30;99.90
8557;DHT22;4316;53.840;10.762;2023-02-26T05:17:36;-0.20;99.90
8557;DHT22;4316;53.840;10.762;2023-02-26T05:20:03;-0.20;99.90
8557;DHT22;4316;53.840;10.762;2023-02-26T05:22:29;-0.20;99.90
8557;DHT22;4316;53.840;10.762;2023-02-26T05:24:55;-0.30;99.90
8557;DHT22;4316;53.840;10.762;2023-02-26T05:27:21;-0.30;99.90
8557;DHT22;4316;53.840;10.762;2023-02-26T05:29:47;-0.30;99.90
8557;DHT22;4316;53.840;10.762;2023-02-26T05:32:13;-0.30;99.90
8557;DHT22;4316;53.840;10.762;2023-02-26T05:34:39;-0.30;99.90
8557;DHT22;4316;53.840;10.762;2023-02-26T05:37:05;-0.30;99.90
8557;DHT22;4316;53.840;10.762;2023-02-26T05:39:30;-0.20;99.90
8557;DHT22;4316;53.840;10.762;2023-02-26T05:41:56;-0.20;99.90
8557;DHT22;4316;53.840;10.762;2023-02-26T05:44:23;-0.30;99.90
8557;DHT22;4316;53.840;10.762;2023-02-26T05:46:48;-0.30;99.90
8557;DHT22;4316;53.840;10.762;2023-02-26T05:49:14;-0.20;99.90
8557;DHT22;4316;53.840;10.762;2023-02-26T05:51:41;-0.30;99.90
8557;DHT22;4316;53.840;10.762;2023-02-26T05:54:08;-0.30;99.90
8557;DHT22;4316;53.840;10.762;2023-02-26T05:56:34;-0.30;99.90
8557;DHT22;4316;53.840;10.762;2023-02-26T05:59:01;-0.30;99.90
8557;DHT22;4316;53.840;10.762;2023-02-26T06:01:27;-0.30;99.90
8557;DHT22;4316;53.840;10.762;2023-02-26T06:03:53;-0.30;99.90
8557;DHT22;4316;53.840;10.762;2023-02-26T06:06:18;-0.30;99.90
8557;DHT22;4316;53.840;10.762;2023-02-26T06:08:46;-0.30;99.90
8557;DHT22;4316;53.840;10.762;2023-02-26T06:11:12;-0.40;99.90
8557;DHT22;4316;53.840;10.762;2023-02-26T06:13:38;-0.40;99.90
8557;DHT22;4316;53.840;10.762;2023-02-26T06:16:04;-0.30;99.90
8557;DHT22;4316;53.840;10.762;2023-02-26T06:18:30;-0.30;99.90
8557;DHT22;4316;53.840;10.762;2023-02-26T06:20:58;-0.20;99.90
8557;DHT22;4316;53.840;10.762;2023-02-26T06:23:24;-0.20;99.90
8557;DHT22;4316;53.840;10.762;2023-02-26T06:25:51;-0.20;99.90
8557;DHT22;4316;53.840;10.762;2023-02-26T06:28:17;-0.20;99.90
8557;DHT22;4316;53.840;10.762;2023-02-26T06:30:43;-0.20;99.90
8557;DHT22;4316;53.840;10.762;2023-02-26T06:33:09;-0.20;99.90
8557;DHT22;4316;53.840;10.762;2023-02-26T06:35:35;-0.30;99.90
8557;DHT22;4316;53.840;10.762;2023-02-26T06:38:01;-0.10;99.90
8557;DHT22;4316;53.840;10.762;2023-02-26T06:40:27;-0.10;99.90
8557;DHT22;4316;53.840;10.762;2023-02-26T06:42:53;-0.10;99.90
8557;DHT22;4316;53.840;10.762;2023-02-26T06:45:19;0.00;99.90
8557;DHT22;4316;53.840;10.762;2023-02-26T06:47:45;-0.10;99.90
8557;DHT22;4316;53.840;10.762;2023-02-26T06:50:11;0.00;99.90
8557;DHT22;4316;53.840;10.762;2023-02-26T06:52:37;0.00;99.90
8557;DHT22;4316;53.840;10.762;2023-02-26T06:55:03;0.00;99.90
8557;DHT22;4316;53.840;10.762;2023-02-26T06:57:29;0.00;99.90
8557;DHT22;4316;53.840;10.762;2023-02-26T06:59:55;0.00;99.90
8557;DHT22;4316;53.840;10.762;2023-02-26T07:02:22;0.00;99.90
8557;DHT22;4316;53.840;10.762;2023-02-26T07:04:48;0.00;99.90
8557;DHT22;4316;53.840;10.762;2023-02-26T07:07:14;0.00;99.90
8557;DHT22;4316;53.840;10.762;2023-02-26T07:09:40;0.00;99.90
8557;DHT22;4316;53.840;10.762;2023-02-26T07:12:06;0.10;99.90
8557;DHT22;4316;53.840;10.762;2023-02-26T07:14:33;0.10;99.90
8557;DHT22;4316;53.840;10.762;2023-02-26T07:16:59;0.00;99.90
8557;DHT22;4316;53.840;10.762;2023-02-26T07:19:25;0.00;99.90
8557;DHT22;4316;53.840;10.762;2023-02-26T07:21:51;0.00;99.90
8557;DHT22;4316;53.840;10.762;2023-02-26T07:24:20;0.00;99.90
8557;DHT22;4316;53.840;10.762;2023-02-26T07:26:46;0.00;99.90
8557;DHT22;4316;53.840;10.762;2023-02-26T07:29:11;0.10;99.90
8557;DHT22;4316;53.840;10.762;2023-02-26T07:31:38;0.10;99.90
8557;DHT22;4316;53.840;10.762;2023-02-26T07:34:04;0.20;99.90
8557;DHT22;4316;53.840;10.762;2023-02-26T07:36:29;0.30;99.90
8557;DHT22;4316;53.840;10.762;2023-02-26T07:38:55;0.50;99.90
8557;DHT22;4316;53.840;10.762;2023-02-26T07:41:22;1.00;99.90
8557;DHT22;4316;53.840;10.762;2023-02-26T07:43:48;1.60;99.90
8557;DHT22;4316;53.840;10.762;2023-02-26T07:46:13;2.40;99.90
8557;DHT22;4316;53.840;10.762;2023-02-26T07:48:39;3.30;99.90
8557;DHT22;4316;53.840;10.762;2023-02-26T07:51:06;4.00;99.90
8557;DHT22;4316;53.840;10.762;2023-02-26T07:53:33;4.60;99.90
8557;DHT22;4316;53.840;10.762;2023-02-26T07:55:59;5.20;99.90
8557;DHT22;4316;53.840;10.762;2023-02-26T07:58:25;5.50;99.90
8557;DHT22;4316;53.840;10.762;2023-02-26T08:00:50;5.70;99.90
8557;DHT22;4316;53.840;10.762;2023-02-26T08:03:18;6.20;99.90
8557;DHT22;4316;53.840;10.762;2023-02-26T08:05:44;6.60;99.90
8557;DHT22;4316;53.840;10.762;2023-02-26T08:08:09;7.00;99.90
8557;DHT22;4316;53.840;10.762;2023-02-26T08:10:35;6.80;99.90
8557;DHT22;4316;53.840;10.762;2023-02-26T08:13:01;6.60;99.90
8557;DHT22;4316;53.840;10.762;2023-02-26T08:15:27;6.90;99.90
8557;DHT22;4316;53.840;10.762;2023-02-26T08:17:53;7.20;99.90
8557;DHT22;4316;53.840;10.762;2023-02-26T08:20:19;7.40;99.90
8557;DHT22;4316;53.840;10.762;2023-02-26T08:22:44;7.10;99.90
8557;DHT22;4316;53.840;10.762;2023-02-26T08:25:10;6.80;99.90
8557;DHT22;4316;53.840;10.762;2023-02-26T08:27:37;7.40;99.90
8557;DHT22;4316;53.840;10.762;2023-02-26T08:30:04;7.10;99.90
8557;DHT22;4316;53.840;10.762;2023-02-26T08:32:30;7.50;99.90
8557;DHT22;4316;53.840;10.762;2023-02-26T08:34:55;7.50;99.70
8557;DHT22;4316;53.840;10.762;2023-02-26T08:37:21;7.20;99.80
8557;DHT22;4316;53.840;10.762;2023-02-26T08:39:51;7.00;99.90
8557;DHT22;4316;53.840;10.762;2023-02-26T08:42:16;7.40;99.90
8557;DHT22;4316;53.840;10.762;2023-02-26T08:44:45;8.20;99.60
8557;DHT22;4316;53.840;10.762;2023-02-26T08:47:12;8.50;99.30
8557;DHT22;4316;53.840;10.762;2023-02-26T08:49:37;8.80;98.60
8557;DHT22;4316;53.840;10.762;2023-02-26T08:52:03;9.00;98.60
8557;DHT22;4316;53.840;10.762;2023-02-26T08:54:29;8.90;97.70
8557;DHT22;4316;53.840;10.762;2023-02-26T08:56:55;8.90;98.50
8557;DHT22;4316;53.840;10.762;2023-02-26T08:59:23;9.30;98.20
8557;DHT22;4316;53.840;10.762;2023-02-26T09:01:49;9.50;97.80
8557;DHT22;4316;53.840;10.762;2023-02-26T09:04:15;9.70;96.90
8557;DHT22;4316;53.840;10.762;2023-02-26T09:06:41;9.70;97.20
8557;DHT22;4316;53.840;10.762;2023-02-26T09:09:06;9.80;96.80
8557;DHT22;4316;53.840;10.762;2023-02-26T09:11:33;9.90;96.50
8557;DHT22;4316;53.840;10.762;2023-02-26T09:13:59;10.10;96.50
8557;DHT22;4316;53.840;10.762;2023-02-26T09:16:26;9.40;96.40
8557;DHT22;4316;53.840;10.762;2023-02-26T09:18:54;9.80;96.70
8557;DHT22;4316;53.840;10.762;2023-02-26T09:21:20;9.90;96.60
8557;DHT22;4316;53.840;10.762;2023-02-26T09:23:46;10.50;96.40
8557;DHT22;4316;53.840;10.762;2023-02-26T09:26:11;11.00;94.90
8557;DHT22;4316;53.840;10.762;2023-02-26T09:28:37;11.40;95.50
8557;DHT22;4316;53.840;10.762;2023-02-26T09:31:03;12.10;94.70
8557;DHT22;4316;53.840;10.762;2023-02-26T09:33:32;11.90;94.00
8557;DHT22;4316;53.840;10.762;2023-02-26T09:35:58;12.20;93.90
8557;DHT22;4316;53.840;10.762;2023-02-26T09:38:24;12.20;92.90
8557;DHT22;4316;53.840;10.762;2023-02-26T09:40:55;12.50;92.60
8557;DHT22;4316;53.840;10.762;2023-02-26T09:43:47;12.20;92.70
8557;DHT22;4316;53.840;10.762;2023-02-26T09:47:20;11.50;93.40
8557;DHT22;4316;53.840;10.762;2023-02-26T09:52:24;11.70;93.20
8557;DHT22;4316;53.840;10.762;2023-02-26T09:55:04;11.80;93.50
8557;DHT22;4316;53.840;10.762;2023-02-26T09:57:38;11.90;93.00
8557;DHT22;4316;53.840;10.762;2023-02-26T10:00:36;11.00;93.80
8557;DHT22;4316;53.840;10.762;2023-02-26T10:08:43;11.80;93.30
8557;DHT22;4316;53.840;10.762;2023-02-26T10:13:56;11.00;94.20
8557;DHT22;4316;53.840;10.762;2023-02-26T10:16:26;11.40;93.70
8557;DHT22;4316;53.840;10.762;2023-02-26T10:19:20;11.20;93.20
8557;DHT22;4316;53.840;10.762;2023-02-26T10:21:56;10.60;93.30
8557;DHT22;4316;53.840;10.762;2023-02-26T10:24:31;10.50;93.70
8557;DHT22;4316;53.840;10.762;2023-02-26T10:27:05;10.60;94.20
8557;DHT22;4316;53.840;10.762;2023-02-26T10:35:35;10.10;94.30
8557;DHT22;4316;53.840;10.762;2023-02-26T10:38:07;9.70;95.90
8557;DHT22;4316;53.840;10.762;2023-02-26T10:43:17;9.40;95.60
8557;DHT22;4316;53.840;10.762;2023-02-26T10:51:22;8.20;97.10
8557;DHT22;4316;53.840;10.762;2023-02-26T10:56:36;8.10;97.30
8557;DHT22;4316;53.840;10.762;2023-02-26T10:59:02;7.90;97.40
8557;DHT22;4316;53.840;10.762;2023-02-26T11:01:29;7.70;98.20
8557;DHT22;4316;53.840;10.762;2023-02-26T11:06:43;7.30;99.00
8557;DHT22;4316;53.840;10.762;2023-02-26T11:09:19;7.70;99.40
8557;DHT22;4316;53.840;10.762;2023-02-26T11:11:50;8.20;99.50
8557;DHT22;4316;53.840;10.762;2023-02-26T11:14:16;8.80;98.20
8557;DHT22;4316;53.840;10.762;2023-02-26T11:16:57;9.10;97.60
8557;DHT22;4316;53.840;10.762;2023-02-26T11:19:32;9.20;96.80
8557;DHT22;4316;53.840;10.762;2023-02-26T11:21:59;8.80;97.50
8557;DHT22;4316;53.840;10.762;2023-02-26T11:27:02;8.50;98.00
8557;DHT22;4316;53.840;10.762;2023-02-26T11:29:36;8.40;97.80
8557;DHT22;4316;53.840;10.762;2023-02-26T11:32:04;8.40;98.10
8557;DHT22;4316;53.840;10.762;2023-02-26T11:34:30;8.50;98.20
8557;DHT22;4316;53.840;10.762;2023-02-26T11:36:59;8.70;98.60
8557;DHT22;4316;53.840;10.762;2023-02-26T11:39:27;8.80;97.60
8557;DHT22;4316;53.840;10.762;2023-02-26T11:41:58;9.00;97.80
8557;DHT22;4316;53.840;10.762;2023-02-26T11:44:37;9.00;97.30
8557;DHT22;4316;53.840;10.762;2023-02-26T11:47:16;8.80;97.60
8557;DHT22;4316;53.840;10.762;2023-02-26T11:49:50;8.50;98.20
8557;DHT22;4316;53.840;10.762;2023-02-26T11:55:03;7.80;98.70
8557;DHT22;4316;53.840;10.762;2023-02-26T11:57:30;7.50;99.40
8557;DHT22;4316;53.840;10.762;2023-02-26T11:59:59;7.20;99.70
8557;DHT22;4316;53.840;10.762;2023-02-26T12:02:32;7.10;99.90
8557;DHT22;4316;53.840;10.762;2023-02-26T12:05:02;7.30;99.90
8557;DHT22;4316;53.840;10.762;2023-02-26T12:07:29;7.70;99.90
8557;DHT22;4316;53.840;10.762;2023-02-26T12:09:55;7.50;99.90
8557;DHT22;4316;53.840;10.762;2023-02-26T12:17:59;7.20;99.90
8557;DHT22;4316;53.840;10.762;2023-02-26T12:23:52;7.20;99.90
8557;DHT22;4316;53.840;10.762;2023-02-26T12:29:11;7.30;99.90
8557;DHT22;4316;53.840;10.762;2023-02-26T12:32:33;7.10;99.90
8557;DHT22;4316;53.840;10.762;2023-02-26T12:45:46;6.50;99.90
8557;DHT22;4316;53.840;10.762;2023-02-26T13:07:15;6.10;99.90
8557;DHT22;4316;53.840;10.762;2023-02-26T13:10:14;6.20;99.90
8557;DHT22;4316;53.840;10.762;2023-02-26T13:12:58;6.50;99.90
8557;DHT22;4316;53.840;10.762;2023-02-26T13:15:47;6.50;99.90
8557;DHT22;4316;53.840;10.762;2023-02-26T13:18:34;6.40;99.90
8557;DHT22;4316;53.840;10.762;2023-02-26T13:21:07;6.40;99.90
8557;DHT22;4316;53.840;10.762;2023-02-26T13:23:40;6.50;99.90
8557;DHT22;4316;53.840;10.762;2023-02-26T13:26:09;6.40;99.90
8557;DHT22;4316;53.840;10.762;2023-02-26T13:29:09;6.40;99.90
8557;DHT22;4316;53.840;10.762;2023-02-26T13:31:57;6.20;99.90
8557;DHT22;4316;53.840;10.762;2023-02-26T13:34:47;6.10;99.90
8557;DHT22;4316;53.840;10.762;2023-02-26T13:37:31;6.20;99.90
8557;DHT22;4316;53.840;10.762;2023-02-26T13:51:04;6.10;99.90
8557;DHT22;4316;53.840;10.762;2023-02-26T13:56:17;6.00;99.90
8557;DHT22;4316;53.840;10.762;2023-02-26T14:06:55;6.00;99.90
8557;DHT22;4316;53.840;10.762;2023-02-26T14:17:38;6.00;99.90
8557;DHT22;4316;53.840;10.762;2023-02-26T14:22:41;5.80;99.90
8557;DHT22;4316;53.840;10.762;2023-02-26T14:27:36;5.70;99.90
8557;DHT22;4316;53.840;10.762;2023-02-26T14:32:46;5.70;99.90
8557;DHT22;4316;53.840;10.762;2023-02-26T14:35:32;5.80;99.90
8557;DHT22;4316;53.840;10.762;2023-02-26T14:38:28;6.00;99.90
8557;DHT22;4316;53.840;10.762;2023-02-26T14:41:05;6.00;99.90
8557;DHT22;4316;53.840;10.762;2023-02-26T14:43:37;6.00;99.90
8557;DHT22;4316;53.840;10.762;2023-02-26T14:46:06;5.90;99.90
8557;DHT22;4316;53.840;10.762;2023-02-26T14:48:34;5.80;99.90
8557;DHT22;4316;53.840;10.762;2023-02-26T15:02:06;5.40;99.90
8557;DHT22;4316;53.840;10.762;2023-02-26T15:13:51;5.70;99.90
8557;DHT22;4316;53.840;10.762;2023-02-26T15:16:44;5.70;99.90
8557;DHT22;4316;53.840;10.762;2023-02-26T15:22:11;5.60;99.90
8557;DHT22;4316;53.840;10.762;2023-02-26T15:24:40;5.50;99.90
8557;DHT22;4316;53.840;10.762;2023-02-26T15:27:07;5.50;99.90
8557;DHT22;4316;53.840;10.762;2023-02-26T15:29:37;5.40;99.90
8557;DHT22;4316;53.840;10.762;2023-02-26T15:32:23;5.50;99.90
8557;DHT22;4316;53.840;10.762;2023-02-26T15:35:15;5.50;99.90
8557;DHT22;4316;53.840;10.762;2023-02-26T15:37:41;5.50;99.90
8557;DHT22;4316;53.840;10.762;2023-02-26T15:40:07;5.30;99.90
8557;DHT22;4316;53.840;10.762;2023-02-26T15:42:38;5.30;99.90
8557;DHT22;4316;53.840;10.762;2023-02-26T15:45:14;5.30;99.90
8557;DHT22;4316;53.840;10.762;2023-02-26T15:47:43;5.30;99.90
8557;DHT22;4316;53.840;10.762;2023-02-26T15:50:13;5.20;99.90
8557;DHT22;4316;53.840;10.762;2023-02-26T15:52:40;5.10;99.90
8557;DHT22;4316;53.840;10.762;2023-02-26T15:55:09;5.00;99.90
8557;DHT22;4316;53.840;10.762;2023-02-26T15:57:38;4.90;99.90
8557;DHT22;4316;53.840;10.762;2023-02-26T16:00:13;4.80;99.90
8557;DHT22;4316;53.840;10.762;2023-02-26T16:02:41;4.90;99.90
8557;DHT22;4316;53.840;10.762;2023-02-26T16:05:09;4.80;99.90
8557;DHT22;4316;53.840;10.762;2023-02-26T16:07:35;4.70;99.90
8557;DHT22;4316;53.840;10.762;2023-02-26T16:10:13;4.70;99.90
8557;DHT22;4316;53.840;10.762;2023-02-26T16:12:41;4.50;99.90
8557;DHT22;4316;53.840;10.762;2023-02-26T16:15:31;4.50;99.90
8557;DHT22;4316;53.840;10.762;2023-02-26T16:18:00;4.40;99.90
8557;DHT22;4316;53.840;10.762;2023-02-26T16:20:36;4.40;99.90
8557;DHT22;4316;53.840;10.762;2023-02-26T16:23:06;4.50;99.90
8557;DHT22;4316;53.840;10.762;2023-02-26T16:25:39;4.50;99.90
8557;DHT22;4316;53.840;10.762;2023-02-26T16:28:18;4.50;99.90
8557;DHT22;4316;53.840;10.762;2023-02-26T16:30:47;4.40;99.90
8557;DHT22;4316;53.840;10.762;2023-02-26T16:33:15;4.30;99.90
8557;DHT22;4316;53.840;10.762;2023-02-26T16:36:11;4.30;99.90
8557;DHT22;4316;53.840;10.762;2023-02-26T16:38:46;4.30;99.90
8557;DHT22;4316;53.840;10.762;2023-02-26T16:41:13;4.20;99.90
8557;DHT22;4316;53.840;10.762;2023-02-26T16:51:29;4.00;99.90
8557;DHT22;4316;53.840;10.762;2023-02-26T16:54:00;3.90;99.90
8557;DHT22;4316;53.840;10.762;2023-02-26T16:56:31;3.90;99.90
8557;DHT22;4316;53.840;10.762;2023-02-26T16:59:19;3.80;99.90
8557;DHT22;4316;53.840;10.762;2023-02-26T17:02:02;3.70;99.90
8557;DHT22;4316;53.840;10.762;2023-02-26T17:04:30;3.70;99.90
8557;DHT22;4316;53.840;10.762;2023-02-26T17:06:57;3.60;99.90
8557;DHT22;4316;53.840;10.762;2023-02-26T17:09:40;3.50;99.90
8557;DHT22;4316;53.840;10.762;2023-02-26T17:14:46;3.40;99.90
8557;DHT22;4316;53.840;10.762;2023-02-26T17:17:12;3.40;99.90
8557;DHT22;4316;53.840;10.762;2023-02-26T17:19:38;3.30;99.90
8557;DHT22;4316;53.840;10.762;2023-02-26T17:22:06;3.30;99.90
8557;DHT22;4316;53.840;10.762;2023-02-26T17:24:37;3.30;99.90
8557;DHT22;4316;53.840;10.762;2023-02-26T17:27:13;3.30;99.90
8557;DHT22;4316;53.840;10.762;2023-02-26T17:29:41;3.10;99.90
8557;DHT22;4316;53.840;10.762;2023-02-26T17:32:22;3.10;99.90
8557;DHT22;4316;53.840;10.762;2023-02-26T17:34:49;3.00;99.90
8557;DHT22;4316;53.840;10.762;2023-02-26T17:37:16;3.00;99.90
8557;DHT22;4316;53.840;10.762;2023-02-26T17:39:42;3.00;99.90
8557;DHT22;4316;53.840;10.762;2023-02-26T17:42:14;3.00;99.90
8557;DHT22;4316;53.840;10.762;2023-02-26T17:44:40;2.90;99.90
8557;DHT22;4316;53.840;10.762;2023-02-26T17:47:16;2.90;99.90
8557;DHT22;4316;53.840;10.762;2023-02-26T17:49:43;2.90;99.90
8557;DHT22;4316;53.840;10.762;2023-02-26T17:52:09;2.90;99.90
8557;DHT22;4316;53.840;10.762;2023-02-26T17:54:35;2.90;99.90
8557;DHT22;4316;53.840;10.762;2023-02-26T17:57:01;2.90;99.90
8557;DHT22;4316;53.840;10.762;2023-02-26T17:59:27;2.80;99.90
8557;DHT22;4316;53.840;10.762;2023-02-26T18:01:53;2.70;99.90
8557;DHT22;4316;53.840;10.762;2023-02-26T18:04:19;2.70;99.90
8557;DHT22;4316;53.840;10.762;2023-02-26T18:06:45;2.70;99.90
8557;DHT22;4316;53.840;10.762;2023-02-26T18:09:11;2.70;99.90
8557;DHT22;4316;53.840;10.762;2023-02-26T18:11:37;2.60;99.90
8557;DHT22;4316;53.840;10.762;2023-02-26T18:14:04;2.60;99.90
8557;DHT22;4316;53.840;10.762;2023-02-26T18:16:39;2.50;99.90
8557;DHT22;4316;53.840;10.762;2023-02-26T18:19:06;2.50;99.90
8557;DHT22;4316;53.840;10.762;2023-02-26T18:21:32;2.50;99.90
8557;DHT22;4316;53.840;10.762;2023-02-26T18:23:58;2.50;99.90
8557;DHT22;4316;53.840;10.762;2023-02-26T18:26:28;2.50;99.90
8557;DHT22;4316;53.840;10.762;2023-02-26T18:28:55;2.50;99.90
8557;DHT22;4316;53.840;10.762;2023-02-26T18:31:22;2.40;99.90
8557;DHT22;4316;53.840;10.762;2023-02-26T18:33:48;2.30;99.90
8557;DHT22;4316;53.840;10.762;2023-02-26T18:36:32;2.30;99.90
8557;DHT22;4316;53.840;10.762;2023-02-26T18:39:01;2.30;99.90
8557;DHT22;4316;53.840;10.762;2023-02-26T18:41:30;2.20;99.90
8557;DHT22;4316;53.840;10.762;2023-02-26T18:43:57;2.20;99.90
8557;DHT22;4316;53.840;10.762;2023-02-26T18:46:23;2.10;99.90
8557;DHT22;4316;53.840;10.762;2023-02-26T18:48:49;2.10;99.90
8557;DHT22;4316;53.840;10.762;2023-02-26T18:51:15;2.10;99.90
8557;DHT22;4316;53.840;10.762;2023-02-26T18:53:41;2.00;99.90
8557;DHT22;4316;53.840;10.762;2023-02-26T18:56:07;1.90;99.90
8557;DHT22;4316;53.840;10.762;2023-02-26T18:58:33;1.90;99.90
8557;DHT22;4316;53.840;10.762;2023-02-26T19:00:58;1.80;99.90
8557;DHT22;4316;53.840;10.762;2023-02-26T19:03:26;1.90;99.90
8557;DHT22;4316;53.840;10.762;2023-02-26T19:06:01;1.80;99.90
8557;DHT22;4316;53.840;10.762;2023-02-26T19:08:27;1.80;99.90
8557;DHT22;4316;53.840;10.762;2023-02-26T19:10:55;1.70;99.90
8557;DHT22;4316;53.840;10.762;2023-02-26T19:13:21;1.70;99.90
8557;DHT22;4316;53.840;10.762;2023-02-26T19:15:47;1.60;99.90
8557;DHT22;4316;53.840;10.762;2023-02-26T19:18:14;1.60;99.90
8557;DHT22;4316;53.840;10.762;2023-02-26T19:20:41;1.60;99.90
8557;DHT22;4316;53.840;10.762;2023-02-26T19:23:07;1.50;99.90
8557;DHT22;4316;53.840;10.762;2023-02-26T19:25:34;1.50;99.90
8557;DHT22;4316;53.840;10.762;2023-02-26T19:28:00;1.40;99.90
8557;DHT22;4316;53.840;10.762;2023-02-26T19:30:26;1.50;99.90
8557;DHT22;4316;53.840;10.762;2023-02-26T19:32:52;1.50;99.90
8557;DHT22;4316;53.840;10.762;2023-02-26T19:35:20;1.50;99.90
8557;DHT22;4316;53.840;10.762;2023-02-26T19:37:46;1.40;99.90